createdAt,value
2022-07-25T00:01:55.337Z,12.88
2022-07-25T00:04:23.772Z,14.47
2022-07-25T00:06:50.566Z,13.70
2022-07-25T00:09:17.945Z,11.65
2022-07-25T00:11:44.801Z,11.23
2022-07-25T00:14:11.830Z,13.55
2022-07-25T00:16:38.720Z,10.90
2022-07-25T00:19:05.841Z,13.68
2022-07-25T00:21:32.843Z,11.38
2022-07-25T00:23:59.879Z,11.52
2022-07-25T00:26:26.618Z,12.32
2022-07-25T00:28:53.895Z,11.88
2022-07-25T00:31:20.729Z,11.48
2022-07-25T00:33:47.813Z,12.95
2022-07-25T00:36:14.507Z,11.25
2022-07-25T00:38:41.554Z,11.15
2022-07-25T00:41:08.310Z,11.48
2022-07-25T00:43:35.405Z,11.75
2022-07-25T00:46:02.272Z,9.98
2022-07-25T00:48:30.519Z,11.73
2022-07-25T00:50:58.551Z,12.63
2022-07-25T00:53:26.033Z,11.85
2022-07-25T00:55:53.368Z,13.82
2022-07-25T00:58:20.538Z,11.55
2022-07-25T01:00:47.786Z,11.80
2022-07-25T01:03:15.108Z,11.45
2022-07-25T01:05:42.405Z,12.23
2022-07-25T01:08:10.365Z,13.82
2022-07-25T01:10:37.655Z,10.13
2022-07-25T01:13:05.519Z,14.07
2022-07-25T01:15:32.452Z,11.45
2022-07-25T01:17:59.625Z,11.38
2022-07-25T01:20:28.243Z,11.65
2022-07-25T01:22:55.450Z,12.65
2022-07-25T01:25:22.856Z,11.60
2022-07-25T01:27:55.094Z,12.23
2022-07-25T01:30:23.399Z,15.45
2022-07-25T01:32:50.735Z,15.40
2022-07-25T01:35:17.571Z,10.93
2022-07-25T01:37:46.105Z,11.43
2022-07-25T01:40:14.811Z,11.30
2022-07-25T01:42:42.724Z,12.20
2022-07-25T01:45:12.217Z,11.82
2022-07-25T01:47:39.945Z,13.98
2022-07-25T01:50:07.809Z,13.27
2022-07-25T01:52:35.730Z,12.52
2022-07-25T01:55:02.805Z,14.43
2022-07-25T01:57:30.812Z,13.38
2022-07-25T01:59:59.016Z,15.05
2022-07-25T02:02:26.219Z,11.65
2022-07-25T02:04:53.774Z,11.93
2022-07-25T02:07:20.593Z,13.25
2022-07-25T02:09:47.557Z,16.02
2022-07-25T02:12:14.265Z,12.05
2022-07-25T02:14:41.376Z,12.52
2022-07-25T02:17:08.612Z,12.82
2022-07-25T02:19:36.781Z,15.30
2022-07-25T02:22:03.857Z,11.68
2022-07-25T02:24:31.010Z,14.23
2022-07-25T02:26:57.995Z,12.57
2022-07-25T02:29:25.670Z,14.57
2022-07-25T02:31:53.076Z,11.02
2022-07-25T02:34:20.181Z,11.90
2022-07-25T02:36:47.215Z,11.48
2022-07-25T02:39:14.214Z,14.60
2022-07-25T02:41:41.265Z,13.15
2022-07-25T02:44:08.381Z,12.07
2022-07-25T02:46:35.734Z,16.95
2022-07-25T02:49:02.814Z,11.43
2022-07-25T02:51:30.202Z,13.13
2022-07-25T02:53:58.457Z,13.93
2022-07-25T02:56:36.580Z,14.23
2022-07-25T02:59:03.640Z,12.30
2022-07-25T03:01:30.803Z,15.68
2022-07-25T03:03:57.623Z,13.82
2022-07-25T03:06:24.706Z,13.65
2022-07-25T03:08:51.458Z,13.55
2022-07-25T03:11:18.837Z,12.38
2022-07-25T03:13:45.913Z,13.57
2022-07-25T03:16:12.983Z,12.25
2022-07-25T03:18:39.745Z,14.15
2022-07-25T03:21:07.416Z,12.48
2022-07-25T03:23:34.221Z,11.23
2022-07-25T03:26:01.330Z,12.60
2022-07-25T03:28:28.010Z,13.00
2022-07-25T03:30:55.257Z,12.40
2022-07-25T03:33:22.556Z,13.50
2022-07-25T03:35:49.653Z,13.75
2022-07-25T03:38:16.356Z,14.27
2022-07-25T03:40:43.572Z,12.10
2022-07-25T03:43:10.505Z,18.73
2022-07-25T03:45:37.639Z,11.40
2022-07-25T03:48:04.747Z,13.80
2022-07-25T03:50:31.817Z,13.25
2022-07-25T03:52:58.666Z,16.45
2022-07-25T03:55:25.960Z,13.75
2022-07-25T03:57:52.646Z,19.40
2022-07-25T04:00:19.701Z,15.40
2022-07-25T04:02:46.844Z,13.00
2022-07-25T04:05:14.162Z,11.63
2022-07-25T04:07:40.962Z,11.43
2022-07-25T04:10:09.847Z,17.42
2022-07-25T04:12:36.528Z,13.90
2022-07-25T04:15:03.808Z,15.70
2022-07-25T04:17:30.567Z,13.98
2022-07-25T04:19:57.325Z,12.68
2022-07-25T04:22:24.371Z,13.55
2022-07-25T04:24:51.123Z,14.00
2022-07-25T04:27:19.258Z,15.68
2022-07-25T04:29:45.958Z,13.27
2022-07-25T04:32:14.076Z,14.10
2022-07-25T04:34:40.856Z,17.55
2022-07-25T04:37:07.854Z,14.65
2022-07-25T04:39:34.554Z,14.15
2022-07-25T04:42:02.036Z,18.10
2022-07-25T04:44:28.765Z,16.08
2022-07-25T04:46:56.170Z,14.13
2022-07-25T04:49:22.857Z,18.50
2022-07-25T04:51:50.624Z,13.13
2022-07-25T04:54:17.322Z,15.73
2022-07-25T04:56:44.329Z,14.60
2022-07-25T04:59:11.013Z,15.45
2022-07-25T05:01:38.181Z,13.60
2022-07-25T05:04:05.485Z,14.85
2022-07-25T05:06:33.490Z,16.33
2022-07-25T05:09:00.369Z,18.80
2022-07-25T05:11:27.441Z,15.05
2022-07-25T05:13:54.218Z,19.45
2022-07-25T05:16:21.325Z,14.65
2022-07-25T05:18:48.081Z,14.55
2022-07-25T05:21:15.181Z,16.58
2022-07-25T05:23:41.883Z,15.77
2022-07-25T05:26:08.925Z,16.27
2022-07-25T05:28:36.029Z,17.45
2022-07-25T05:31:03.302Z,15.95
2022-07-25T05:33:30.225Z,18.05
2022-07-25T05:35:57.302Z,13.63
2022-07-25T05:38:24.276Z,16.02
2022-07-25T05:40:52.508Z,13.15
2022-07-25T05:43:19.701Z,15.02
2022-07-25T05:45:47.726Z,15.52
2022-07-25T05:48:15.575Z,12.85
2022-07-25T05:50:42.508Z,14.13
2022-07-25T05:53:09.809Z,15.25
2022-07-25T05:55:40.762Z,13.57
2022-07-25T05:58:09.674Z,16.20
2022-07-25T06:00:36.813Z,14.48
2022-07-25T06:03:04.455Z,15.60
2022-07-25T06:05:31.597Z,13.90
2022-07-25T06:07:58.631Z,13.13
2022-07-25T06:10:25.480Z,15.23
2022-07-25T06:12:52.635Z,15.65
2022-07-25T06:15:22.572Z,16.63
2022-07-25T06:17:54.241Z,15.38
2022-07-25T06:20:21.021Z,14.43
2022-07-25T06:22:48.255Z,16.17
2022-07-25T06:25:15.256Z,16.20
2022-07-25T06:27:43.005Z,14.18
2022-07-25T06:30:19.108Z,15.55
2022-07-25T06:32:48.469Z,15.35
2022-07-25T06:35:15.850Z,16.27
2022-07-25T06:37:42.992Z,15.23
2022-07-25T06:40:10.260Z,14.30
2022-07-25T06:42:41.445Z,17.50
2022-07-25T06:45:09.764Z,15.32
2022-07-25T06:47:37.433Z,14.23
2022-07-25T06:50:11.139Z,13.43
2022-07-25T06:52:38.870Z,14.23
2022-07-25T06:55:06.739Z,13.43
2022-07-25T06:57:33.486Z,13.25
2022-07-25T07:00:00.242Z,14.98
2022-07-25T07:02:27.284Z,16.20
2022-07-25T07:04:54.003Z,15.00
2022-07-25T07:07:21.167Z,16.80
2022-07-25T07:09:47.902Z,13.57
2022-07-25T07:12:14.921Z,15.15
2022-07-25T07:14:43.638Z,14.73
2022-07-25T07:17:10.734Z,15.50
2022-07-25T07:19:44.353Z,13.63
2022-07-25T07:22:11.428Z,13.90
2022-07-25T07:24:44.225Z,13.90
2022-07-25T07:27:15.194Z,13.18
2022-07-25T07:29:45.883Z,13.82
2022-07-25T07:32:13.658Z,12.57
2022-07-25T07:34:40.403Z,15.52
2022-07-25T07:37:07.463Z,12.82
2022-07-25T07:39:34.193Z,12.25
2022-07-25T07:42:01.236Z,14.55
2022-07-25T07:44:27.958Z,14.45
2022-07-25T07:46:55.105Z,14.98
2022-07-25T07:49:21.981Z,12.48
2022-07-25T07:51:49.016Z,15.02
2022-07-25T07:54:34.209Z,13.35
2022-07-25T07:57:01.368Z,12.15
2022-07-25T07:59:28.067Z,12.85
2022-07-25T08:01:55.349Z,11.52
2022-07-25T08:04:22.347Z,12.00
2022-07-25T08:06:49.034Z,15.43
2022-07-25T08:09:16.109Z,12.48
2022-07-25T08:11:42.897Z,12.90
2022-07-25T08:14:10.730Z,13.13
2022-07-25T08:16:38.686Z,13.43
2022-07-25T08:19:05.879Z,11.23
2022-07-25T08:21:32.587Z,12.00
2022-07-25T08:23:59.658Z,12.43
2022-07-25T08:26:27.910Z,13.65
2022-07-25T08:29:17.130Z,12.30
2022-07-25T08:31:41.588Z,13.32
2022-07-25T08:34:09.134Z,10.68
2022-07-25T08:36:37.749Z,11.13
2022-07-25T08:39:05.941Z,11.70
2022-07-25T08:41:34.933Z,16.80
2022-07-25T08:44:04.492Z,11.30
2022-07-25T08:46:31.910Z,9.88
2022-07-25T08:48:59.307Z,11.35
2022-07-25T08:51:26.270Z,10.93
2022-07-25T08:53:55.501Z,10.32
2022-07-25T08:56:22.206Z,9.38
2022-07-25T08:58:49.783Z,9.05
2022-07-25T09:01:16.661Z,9.68
2022-07-25T09:03:44.140Z,9.32
2022-07-25T09:06:29.107Z,11.02
2022-07-25T09:08:58.178Z,10.70
2022-07-25T09:11:37.644Z,9.32
2022-07-25T09:14:11.073Z,11.02
2022-07-25T09:16:46.570Z,11.43
2022-07-25T09:19:18.692Z,10.15
2022-07-25T09:21:57.917Z,9.13
2022-07-25T09:24:26.636Z,9.65
2022-07-25T09:26:56.023Z,10.05
2022-07-25T09:31:59.044Z,11.38
2022-07-25T09:34:41.066Z,10.80
2022-07-25T09:37:12.046Z,9.93
2022-07-25T09:39:47.390Z,11.52
2022-07-25T09:42:33.387Z,10.75
2022-07-25T09:45:20.673Z,11.05
2022-07-25T09:47:54.694Z,7.70
2022-07-25T09:50:23.351Z,9.27
2022-07-25T09:52:55.425Z,9.38
2022-07-25T09:55:23.313Z,8.80
2022-07-25T09:57:50.513Z,11.68
2022-07-25T10:00:21.478Z,8.00
2022-07-25T10:03:27.903Z,8.82
2022-07-25T10:06:00.944Z,8.90
2022-07-25T10:08:28.120Z,9.82
2022-07-25T10:10:55.501Z,8.57
2022-07-25T10:13:35.555Z,7.82
2022-07-25T10:16:03.332Z,9.10
2022-07-25T10:18:31.588Z,7.10
2022-07-25T10:21:25.683Z,6.93
2022-07-25T10:24:02.583Z,8.63
2022-07-25T10:26:30.671Z,8.98
2022-07-25T10:28:58.536Z,7.25
2022-07-25T10:31:42.170Z,6.75
2022-07-25T10:34:16.143Z,7.22
2022-07-25T10:36:51.786Z,7.97
2022-07-25T10:39:21.182Z,6.97
2022-07-25T10:42:02.300Z,9.23
2022-07-25T10:44:41.742Z,6.95
2022-07-25T10:47:13.066Z,8.30
2022-07-25T10:50:14.504Z,7.80
2022-07-25T10:52:41.852Z,5.53
2022-07-25T10:55:09.374Z,6.32
2022-07-25T10:57:45.148Z,5.45
2022-07-25T11:00:22.615Z,7.88
2022-07-25T11:02:50.155Z,7.68
2022-07-25T11:05:17.047Z,6.47
2022-07-25T11:08:20.000Z,5.10
2022-07-25T11:10:41.144Z,5.95
2022-07-25T11:13:14.676Z,8.48
2022-07-25T11:15:42.598Z,5.75
2022-07-25T11:18:09.659Z,7.10
2022-07-25T11:20:36.378Z,5.65
2022-07-25T11:23:03.419Z,7.13
2022-07-25T11:25:30.229Z,4.75
2022-07-25T11:28:00.245Z,6.15
2022-07-25T11:30:29.088Z,5.10
2022-07-25T11:32:58.909Z,6.75
2022-07-25T11:35:33.248Z,6.40
2022-07-25T11:38:02.689Z,5.70
2022-07-25T11:40:32.531Z,6.72
2022-07-25T11:43:01.291Z,5.03
2022-07-25T11:45:33.879Z,5.63
2022-07-25T11:48:13.370Z,5.72
2022-07-25T11:50:43.050Z,7.70
2022-07-25T11:53:15.752Z,5.25
2022-07-25T11:55:43.695Z,6.45
2022-07-25T11:58:13.136Z,6.95
2022-07-25T12:00:44.210Z,6.43
2022-07-25T12:03:20.003Z,6.22
2022-07-25T12:05:48.335Z,6.43
2022-07-25T12:08:20.848Z,6.88
2022-07-25T12:10:50.516Z,7.38
2022-07-25T12:13:29.287Z,8.70
2022-07-25T12:15:57.882Z,6.00
2022-07-25T12:18:25.563Z,7.00
2022-07-25T12:20:53.214Z,6.85
2022-07-25T12:23:22.103Z,6.75
2022-07-25T12:25:55.107Z,7.30
2022-07-25T12:28:22.411Z,8.55
2022-07-25T12:30:56.029Z,7.75
2022-07-25T12:33:23.722Z,6.10
2022-07-25T12:35:50.516Z,8.55
2022-07-25T12:38:17.601Z,8.32
2022-07-25T12:40:44.786Z,6.57
2022-07-25T12:43:11.806Z,9.82
2022-07-25T12:45:38.658Z,7.38
2022-07-25T12:48:05.998Z,8.27
2022-07-25T12:50:32.737Z,8.30
2022-07-25T12:52:59.883Z,8.15
2022-07-25T12:55:26.663Z,8.73
2022-07-25T12:57:54.434Z,9.48
2022-07-25T13:00:23.127Z,7.80
2022-07-25T13:02:52.224Z,7.05
2022-07-25T13:05:20.036Z,8.25
2022-07-25T13:07:49.250Z,7.63
2022-07-25T13:10:17.268Z,8.93
2022-07-25T13:12:44.470Z,7.85
2022-07-25T13:15:11.180Z,7.30
2022-07-25T13:17:38.207Z,8.02
2022-07-25T13:20:05.436Z,7.13
2022-07-25T13:22:32.724Z,6.57
2022-07-25T13:24:59.696Z,7.47
2022-07-25T13:27:26.378Z,8.57
2022-07-25T13:29:56.432Z,6.75
2022-07-25T13:32:24.040Z,6.65
2022-07-25T13:34:51.060Z,7.22
2022-07-25T13:37:17.862Z,7.32
2022-07-25T13:39:45.000Z,7.15
2022-07-25T13:42:11.668Z,6.72
2022-07-25T13:44:38.745Z,8.05
2022-07-25T13:47:05.623Z,6.97
2022-07-25T13:49:32.931Z,7.50
2022-07-25T13:51:59.657Z,7.07
2022-07-25T13:54:26.690Z,8.98
2022-07-25T13:56:53.472Z,7.88
2022-07-25T13:59:21.674Z,10.57
2022-07-25T14:01:49.395Z,7.72
2022-07-25T14:04:16.763Z,8.85
2022-07-25T14:06:43.767Z,10.82
2022-07-25T14:09:11.129Z,10.73
2022-07-25T14:11:38.344Z,7.55
2022-07-25T14:14:05.349Z,7.25
2022-07-25T14:16:34.056Z,6.60
2022-07-25T14:19:02.436Z,8.40
2022-07-25T14:21:29.876Z,13.30
2022-07-25T14:23:57.022Z,8.98
2022-07-25T14:26:23.739Z,8.68
2022-07-25T14:28:50.710Z,12.10
2022-07-25T14:31:17.837Z,7.80
2022-07-25T14:33:44.620Z,7.03
2022-07-25T14:36:11.725Z,8.48
2022-07-25T14:38:39.171Z,10.98
2022-07-25T14:41:10.707Z,7.38
2022-07-25T14:43:40.085Z,10.85
2022-07-25T14:46:08.291Z,7.22
2022-07-25T14:48:38.964Z,8.07
2022-07-25T14:51:07.245Z,9.65
2022-07-25T14:53:34.908Z,9.53
2022-07-25T14:56:04.334Z,8.27
2022-07-25T14:58:31.545Z,7.18
2022-07-25T15:00:58.661Z,9.55
2022-07-25T15:03:25.523Z,7.57
2022-07-25T15:05:52.808Z,7.10
2022-07-25T15:08:19.605Z,6.63
2022-07-25T15:10:47.244Z,11.77
2022-07-25T15:13:30.390Z,7.40
2022-07-25T15:15:58.667Z,12.18
2022-07-25T15:18:25.610Z,8.00
2022-07-25T15:20:52.663Z,10.20
2022-07-25T15:23:21.006Z,7.43
2022-07-25T15:26:04.588Z,7.85
2022-07-25T15:28:36.278Z,7.53
2022-07-25T15:31:04.229Z,9.45
2022-07-25T15:33:31.398Z,7.43
2022-07-25T15:35:59.023Z,9.40
2022-07-25T15:38:26.376Z,8.18
2022-07-25T15:40:53.450Z,7.25
2022-07-25T15:43:20.334Z,8.43
2022-07-25T15:45:48.171Z,9.10
2022-07-25T15:48:16.117Z,9.30
2022-07-25T15:50:46.054Z,6.65
2022-07-25T15:53:13.550Z,7.82
2022-07-25T15:55:41.934Z,8.27
2022-07-25T15:58:10.075Z,8.60
2022-07-25T16:00:38.781Z,7.18
2022-07-25T16:03:05.971Z,7.90
2022-07-25T16:05:33.080Z,7.88
2022-07-25T16:08:03.413Z,7.72
2022-07-25T16:10:32.298Z,10.73
2022-07-25T16:12:59.592Z,8.93
2022-07-25T16:15:26.851Z,8.70
2022-07-25T16:18:00.078Z,7.22
2022-07-25T16:20:31.741Z,8.73
2022-07-25T16:22:59.232Z,5.97
2022-07-25T16:25:27.445Z,10.35
2022-07-25T16:27:54.728Z,6.78
2022-07-25T16:30:21.605Z,7.97
2022-07-25T16:32:48.699Z,5.93
2022-07-25T16:35:15.669Z,6.78
2022-07-25T16:37:43.094Z,9.02
2022-07-25T16:40:10.113Z,6.05
2022-07-25T16:42:37.692Z,7.53
2022-07-25T16:45:05.563Z,7.97
2022-07-25T16:47:32.636Z,7.15
2022-07-25T16:49:59.345Z,7.60
2022-07-25T16:52:26.498Z,6.60
2022-07-25T16:54:53.198Z,6.47
2022-07-25T16:57:24.703Z,7.53
2022-07-25T16:59:53.281Z,6.20
2022-07-25T17:02:24.809Z,8.80
2022-07-25T17:04:54.501Z,9.40
2022-07-25T17:07:21.651Z,8.90
2022-07-25T17:09:48.365Z,8.85
2022-07-25T17:12:16.820Z,7.97
2022-07-25T17:14:44.503Z,9.43
2022-07-25T17:17:11.770Z,11.85
2022-07-25T17:19:39.947Z,8.80
2022-07-25T17:22:08.166Z,11.73
2022-07-25T17:24:35.673Z,10.23
2022-07-25T17:27:02.815Z,12.93
2022-07-25T17:29:29.721Z,8.55
2022-07-25T17:31:56.806Z,12.98
2022-07-25T17:34:24.408Z,8.90
2022-07-25T17:36:51.520Z,11.13
2022-07-25T17:39:18.289Z,8.60
2022-07-25T17:41:46.402Z,12.52
2022-07-25T17:44:13.521Z,8.30
2022-07-25T17:46:40.888Z,8.20
2022-07-25T17:49:07.733Z,8.25
2022-07-25T17:51:34.496Z,8.50
2022-07-25T17:54:01.515Z,10.02
2022-07-25T17:56:28.237Z,7.65
2022-07-25T17:58:56.427Z,8.82
2022-07-25T18:01:23.236Z,7.47
2022-07-25T18:03:50.861Z,7.55
2022-07-25T18:06:17.744Z,8.90
2022-07-25T18:08:44.868Z,11.20
2022-07-25T18:11:11.605Z,9.27
2022-07-25T18:13:38.797Z,7.97
2022-07-25T18:16:05.981Z,6.80
2022-07-25T18:18:33.358Z,6.40
2022-07-25T18:21:00.272Z,8.88
2022-07-25T18:23:28.977Z,8.60
2022-07-25T18:25:55.732Z,8.53
2022-07-25T18:28:22.938Z,8.00
2022-07-25T18:30:52.038Z,7.47
2022-07-25T18:33:20.699Z,11.20
2022-07-25T18:35:48.997Z,11.82
2022-07-25T18:38:16.051Z,10.23
2022-07-25T18:40:42.739Z,9.32
2022-07-25T18:43:10.635Z,7.97
2022-07-25T18:45:37.665Z,9.80
2022-07-25T18:48:06.596Z,8.60
2022-07-25T18:50:33.694Z,10.88
2022-07-25T18:53:00.876Z,7.70
2022-07-25T18:55:27.600Z,10.25
2022-07-25T18:57:54.686Z,9.65
2022-07-25T19:00:21.601Z,9.55
2022-07-25T19:02:48.734Z,9.93
2022-07-25T19:05:15.663Z,13.85
2022-07-25T19:07:43.171Z,8.70
2022-07-25T19:10:10.917Z,11.38
2022-07-25T19:12:38.373Z,11.18
2022-07-25T19:15:06.137Z,8.82
2022-07-25T19:17:35.473Z,11.77
2022-07-25T19:20:03.239Z,10.55
2022-07-25T19:22:30.368Z,7.90
2022-07-25T19:24:57.075Z,11.07
2022-07-25T19:27:25.787Z,10.32
2022-07-25T19:29:52.902Z,12.20
2022-07-25T19:32:19.598Z,10.18
2022-07-25T19:34:46.655Z,11.88
2022-07-25T19:37:13.429Z,10.43
2022-07-25T19:39:40.458Z,11.45
2022-07-25T19:42:09.731Z,16.02
2022-07-25T19:44:38.839Z,11.15
2022-07-25T19:47:11.236Z,9.50
2022-07-25T19:49:40.331Z,11.23
2022-07-25T19:52:08.284Z,10.80
2022-07-25T19:54:35.637Z,8.43
2022-07-25T19:57:02.634Z,9.02
2022-07-25T19:59:29.665Z,8.60
2022-07-25T20:01:56.865Z,10.88
2022-07-25T20:04:24.136Z,7.80
2022-07-25T20:06:50.836Z,9.32
2022-07-25T20:09:17.881Z,12.05
2022-07-25T20:11:44.905Z,10.00
2022-07-25T20:14:11.615Z,8.70
2022-07-25T20:16:39.596Z,11.48
2022-07-25T20:19:09.164Z,11.85
2022-07-25T20:24:04.441Z,9.38
2022-07-25T20:26:31.422Z,8.35
2022-07-25T20:28:58.272Z,11.07
2022-07-25T20:31:25.650Z,9.35
2022-07-25T20:33:53.528Z,9.90
2022-07-25T20:36:21.290Z,12.32
2022-07-25T20:38:48.024Z,10.32
2022-07-25T20:41:16.039Z,10.68
2022-07-25T20:43:42.819Z,9.55
2022-07-25T20:46:09.978Z,10.20
2022-07-25T20:48:36.892Z,7.60
2022-07-25T20:51:03.877Z,8.95
2022-07-25T20:53:30.973Z,7.38
2022-07-25T20:55:58.272Z,9.20
2022-07-25T20:58:25.411Z,13.45
2022-07-25T21:00:52.248Z,10.32
2022-07-25T21:03:19.330Z,10.57
2022-07-25T21:05:46.038Z,8.65
2022-07-25T21:08:13.034Z,10.60
2022-07-25T21:10:39.852Z,8.68
2022-07-25T21:13:07.058Z,9.77
2022-07-25T21:15:33.958Z,9.88
2022-07-25T21:18:01.124Z,9.23
2022-07-25T21:20:28.290Z,8.55
2022-07-25T21:22:55.642Z,10.68
2022-07-25T21:25:22.509Z,13.07
2022-07-25T21:27:49.666Z,7.82
2022-07-25T21:30:16.384Z,11.38
2022-07-25T21:32:44.682Z,7.43
2022-07-25T21:35:11.531Z,9.02
2022-07-25T21:37:38.763Z,8.60
2022-07-25T21:40:06.401Z,7.72
2022-07-25T21:42:33.457Z,9.23
2022-07-25T21:45:00.157Z,6.80
2022-07-25T21:47:27.184Z,5.50
2022-07-25T21:50:12.996Z,7.05
2022-07-25T21:52:40.636Z,9.32
2022-07-25T21:55:08.056Z,5.38
2022-07-25T21:57:35.151Z,8.90
2022-07-25T22:00:01.892Z,8.07
2022-07-25T22:02:28.616Z,8.02
2022-07-25T22:04:55.778Z,7.75
2022-07-25T22:07:22.882Z,6.55
2022-07-25T22:09:49.889Z,6.72
2022-07-25T22:12:16.663Z,5.95
2022-07-25T22:14:43.695Z,7.03
2022-07-25T22:17:10.550Z,6.68
2022-07-25T22:19:37.631Z,5.85
2022-07-25T22:22:06.064Z,10.98
2022-07-25T22:24:33.214Z,6.18
2022-07-25T22:27:00.201Z,4.70
2022-07-25T22:29:27.230Z,7.72
2022-07-25T22:31:54.008Z,5.00
2022-07-25T22:34:21.155Z,6.75
2022-07-25T22:36:47.884Z,6.82
2022-07-25T22:39:16.046Z,5.72
2022-07-25T22:41:43.273Z,9.65
2022-07-25T22:44:10.359Z,3.78
2022-07-25T22:46:37.189Z,5.20
2022-07-25T22:49:04.745Z,6.28
2022-07-25T22:51:31.661Z,5.68
2022-07-25T22:53:58.920Z,6.55
2022-07-25T22:56:26.649Z,6.50
2022-07-25T22:58:53.553Z,6.88
2022-07-25T23:01:21.480Z,9.52
2022-07-25T23:03:50.070Z,13.57
2022-07-25T23:06:19.539Z,5.80
2022-07-25T23:08:47.008Z,6.83
2022-07-25T23:11:14.298Z,5.93
2022-07-25T23:13:41.024Z,5.65
2022-07-25T23:16:10.254Z,4.28
2022-07-25T23:18:37.508Z,6.72
2022-07-25T23:21:04.554Z,3.72
2022-07-25T23:23:32.428Z,4.53
2022-07-25T23:25:59.462Z,4.97
2022-07-25T23:28:26.163Z,5.05
2022-07-25T23:30:53.234Z,9.43
2022-07-25T23:33:24.482Z,4.97
2022-07-25T23:35:53.437Z,6.60
2022-07-25T23:38:20.383Z,4.97
2022-07-25T23:40:47.619Z,5.10
2022-07-25T23:43:16.993Z,10.20
2022-07-25T23:45:58.953Z,8.98
2022-07-25T23:48:27.714Z,7.35
2022-07-25T23:50:54.753Z,6.45
2022-07-25T23:53:21.487Z,8.32
2022-07-25T23:55:48.494Z,6.65
2022-07-25T23:58:15.198Z,4.63
